sensor_id;sensor_type;location;lat;lon;timestamp;pressure;altitude;pressure_sealevel;temperature;humidity
34674;BME280;20879;55.668;37.858;2023-04-20T00:01:41;100496.59;;;8.80;33.78
34674;BME280;20879;55.668;37.858;2023-04-20T00:04:10;100503.44;;;8.83;33.88
34674;BME280;20879;55.668;37.858;2023-04-20T00:06:45;100498.34;;;8.89;34.02
34674;BME280;20879;55.668;37.858;2023-04-20T00:09:15;100500.94;;;8.95;33.73
34674;BME280;20879;55.668;37.858;2023-04-20T00:11:47;100495.78;;;8.95;33.83
34674;BME280;20879;55.668;37.858;2023-04-20T00:14:16;100500.00;;;8.81;33.81
34674;BME280;20879;55.668;37.858;2023-04-20T00:16:46;100509.47;;;8.76;33.89
34674;BME280;20879;55.668;37.858;2023-04-20T00:19:15;100518.00;;;8.65;34.00
34674;BME280;20879;55.668;37.858;2023-04-20T00:21:50;100514.56;;;8.63;34.17
34674;BME280;20879;55.668;37.858;2023-04-20T00:24:19;100510.19;;;8.48;34.70
34674;BME280;20879;55.668;37.858;2023-04-20T00:26:51;100510.91;;;8.33;34.77
34674;BME280;20879;55.668;37.858;2023-04-20T00:29:26;100508.22;;;8.18;35.06
34674;BME280;20879;55.668;37.858;2023-04-20T00:31:57;100509.03;;;8.15;35.33
34674;BME280;20879;55.668;37.858;2023-04-20T00:34:26;100503.88;;;8.14;35.33
34674;BME280;20879;55.668;37.858;2023-04-20T00:36:56;100504.81;;;8.22;34.97
34674;BME280;20879;55.668;37.858;2023-04-20T00:39:31;100495.38;;;8.27;35.18
34674;BME280;20879;55.668;37.858;2023-04-20T00:42:06;100495.41;;;8.30;35.13
34674;BME280;20879;55.668;37.858;2023-04-20T00:44:40;100496.28;;;8.31;35.17
34674;BME280;20879;55.668;37.858;2023-04-20T00:47:10;100491.94;;;8.28;35.04
34674;BME280;20879;55.668;37.858;2023-04-20T00:49:45;100491.09;;;8.29;35.24
34674;BME280;20879;55.668;37.858;2023-04-20T00:52:14;100491.94;;;8.28;35.22
34674;BME280;20879;55.668;37.858;2023-04-20T00:54:44;100471.19;;;8.10;35.58
34674;BME280;20879;55.668;37.858;2023-04-20T00:57:18;100476.31;;;8.07;36.06
34674;BME280;20879;55.668;37.858;2023-04-20T00:59:49;100483.19;;;8.04;36.14
34674;BME280;20879;55.668;37.858;2023-04-20T01:02:21;100478.00;;;7.98;36.00
34674;BME280;20879;55.668;37.858;2023-04-20T01:04:51;100477.06;;;7.90;36.25
34674;BME280;20879;55.668;37.858;2023-04-20T01:07:20;100484.78;;;7.87;36.55
34674;BME280;20879;55.668;37.858;2023-04-20T01:09:50;100463.09;;;7.63;36.48
34674;BME280;20879;55.668;37.858;2023-04-20T01:12:22;100481.16;;;7.65;36.79
34674;BME280;20879;55.668;37.858;2023-04-20T01:14:51;100483.69;;;7.59;37.25
34674;BME280;20879;55.668;37.858;2023-04-20T01:17:20;100477.66;;;7.61;37.52
34674;BME280;20879;55.668;37.858;2023-04-20T01:19:50;100478.53;;;7.60;37.23
34674;BME280;20879;55.668;37.858;2023-04-20T01:22:22;100475.84;;;7.51;37.97
34674;BME280;20879;55.668;37.858;2023-04-20T01:24:56;100478.28;;;7.34;38.57
34674;BME280;20879;55.668;37.858;2023-04-20T01:27:26;100476.41;;;7.17;38.61
34674;BME280;20879;55.668;37.858;2023-04-20T01:29:55;100475.50;;;7.17;38.50
34674;BME280;20879;55.668;37.858;2023-04-20T01:32:25;100472.09;;;7.18;38.75
34674;BME280;20879;55.668;37.858;2023-04-20T01:34:57;100468.66;;;7.16;38.61
34674;BME280;20879;55.668;37.858;2023-04-20T01:37:28;100466.97;;;7.21;39.08
34674;BME280;20879;55.668;37.858;2023-04-20T01:40:09;100464.44;;;7.24;39.03
34674;BME280;20879;55.668;37.858;2023-04-20T01:42:39;100447.13;;;7.12;38.72
34674;BME280;20879;55.668;37.858;2023-04-20T01:45:09;100465.38;;;7.32;38.60
34674;BME280;20879;55.668;37.858;2023-04-20T01:47:44;100462.00;;;7.37;38.58
34674;BME280;20879;55.668;37.858;2023-04-20T01:50:13;100456.78;;;7.32;38.97
34674;BME280;20879;55.668;37.858;2023-04-20T01:52:45;100462.78;;;7.31;38.89
34674;BME280;20879;55.668;37.858;2023-04-20T01:55:17;100434.25;;;7.11;39.27
34674;BME280;20879;55.668;37.858;2023-04-20T01:57:46;100450.69;;;7.24;39.40
34674;BME280;20879;55.668;37.858;2023-04-20T02:00:17;100446.34;;;7.18;39.70
34674;BME280;20879;55.668;37.858;2023-04-20T02:02:47;100454.13;;;7.23;39.30
34674;BME280;20879;55.668;37.858;2023-04-20T02:05:16;100446.41;;;7.24;39.67
34674;BME280;20879;55.668;37.858;2023-04-20T02:07:48;100448.88;;;7.15;39.93
34674;BME280;20879;55.668;37.858;2023-04-20T02:10:23;100446.19;;;7.04;39.69
34674;BME280;20879;55.668;37.858;2023-04-20T02:12:53;100447.13;;;7.12;39.75
34674;BME280;20879;55.668;37.858;2023-04-20T02:15:23;100448.06;;;7.16;40.05
34674;BME280;20879;55.668;37.858;2023-04-20T02:17:53;100449.00;;;7.26;39.93
34674;BME280;20879;55.668;37.858;2023-04-20T02:20:23;100443.06;;;7.33;39.84
34674;BME280;20879;55.668;37.858;2023-04-20T02:23:00;100444.78;;;7.32;40.17
34674;BME280;20879;55.668;37.858;2023-04-20T02:25:29;100442.19;;;7.31;40.55
34674;BME280;20879;55.668;37.858;2023-04-20T02:27:58;100456.72;;;7.27;40.16
34674;BME280;20879;55.668;37.858;2023-04-20T02:30:43;100452.38;;;7.22;40.95
34674;BME280;20879;55.668;37.858;2023-04-20T02:33:13;100411.72;;;6.91;41.11
34674;BME280;20879;55.668;37.858;2023-04-20T02:35:44;100449.63;;;7.05;41.27
34674;BME280;20879;55.668;37.858;2023-04-20T02:38:15;100447.84;;;6.97;42.03
34674;BME280;20879;55.668;37.858;2023-04-20T02:40:45;100440.97;;;6.99;41.71
34674;BME280;20879;55.668;37.858;2023-04-20T02:43:15;100446.13;;;6.99;41.48
34674;BME280;20879;55.668;37.858;2023-04-20T02:45:45;100444.41;;;6.97;41.93
34674;BME280;20879;55.668;37.858;2023-04-20T02:48:15;100441.88;;;7.02;41.95
34674;BME280;20879;55.668;37.858;2023-04-20T02:50:47;100441.00;;;7.01;42.19
34674;BME280;20879;55.668;37.858;2023-04-20T02:53:22;100434.16;;;7.02;42.28
34674;BME280;20879;55.668;37.858;2023-04-20T02:56:09;100438.38;;;6.96;42.33
34674;BME280;20879;55.668;37.858;2023-04-20T02:58:45;100419.47;;;6.91;42.27
34674;BME280;20879;55.668;37.858;2023-04-20T03:01:34;100427.28;;;7.02;42.92
34674;BME280;20879;55.668;37.858;2023-04-20T03:04:14;100437.63;;;7.05;42.43
34674;BME280;20879;55.668;37.858;2023-04-20T03:06:59;100432.44;;;7.04;42.77
34674;BME280;20879;55.668;37.858;2023-04-20T03:09:34;100415.34;;;7.09;42.43
34674;BME280;20879;55.668;37.858;2023-04-20T03:12:27;100419.72;;;7.16;42.77
34674;BME280;20879;55.668;37.858;2023-04-20T03:15:17;100424.94;;;7.24;42.73
34674;BME280;20879;55.668;37.858;2023-04-20T03:17:57;100402.53;;;7.15;42.58
34674;BME280;20879;55.668;37.858;2023-04-20T03:20:32;100426.69;;;7.25;42.85
34674;BME280;20879;55.668;37.858;2023-04-20T03:23:01;100415.50;;;7.24;43.18
34674;BME280;20879;55.668;37.858;2023-04-20T03:25:32;100436.13;;;7.27;43.01
34674;BME280;20879;55.668;37.858;2023-04-20T03:28:12;100423.28;;;7.32;43.22
34674;BME280;20879;55.668;37.858;2023-04-20T03:30:42;100423.34;;;7.35;42.85
34674;BME280;20879;55.668;37.858;2023-04-20T03:33:15;100415.56;;;7.33;43.49
34674;BME280;20879;55.668;37.858;2023-04-20T03:35:44;100420.78;;;7.37;43.42
34674;BME280;20879;55.668;37.858;2023-04-20T03:38:20;100426.78;;;7.37;43.36
34674;BME280;20879;55.668;37.858;2023-04-20T03:40:53;100437.13;;;7.42;43.68
34674;BME280;20879;55.668;37.858;2023-04-20T03:43:22;100435.41;;;7.42;43.60
34674;BME280;20879;55.668;37.858;2023-04-20T03:45:54;100427.72;;;7.44;43.61
34674;BME280;20879;55.668;37.858;2023-04-20T03:48:24;100427.72;;;7.45;43.80
34674;BME280;20879;55.668;37.858;2023-04-20T03:50:53;100433.75;;;7.47;43.81
34674;BME280;20879;55.668;37.858;2023-04-20T03:53:28;100419.13;;;7.46;44.05
34674;BME280;20879;55.668;37.858;2023-04-20T03:56:00;100422.59;;;7.50;43.85
34674;BME280;20879;55.668;37.858;2023-04-20T03:58:31;100424.38;;;7.54;43.91
34674;BME280;20879;55.668;37.858;2023-04-20T04:01:21;100420.94;;;7.58;44.31
34674;BME280;20879;55.668;37.858;2023-04-20T04:03:50;100402.91;;;7.60;44.06
34674;BME280;20879;55.668;37.858;2023-04-20T04:06:31;100400.47;;;7.77;43.98
34674;BME280;20879;55.668;37.858;2023-04-20T04:09:00;100407.53;;;8.05;43.47
34674;BME280;20879;55.668;37.858;2023-04-20T04:11:32;100405.94;;;8.29;43.08
34674;BME280;20879;55.668;37.858;2023-04-20T04:14:02;100410.38;;;8.49;42.77
34674;BME280;20879;55.668;37.858;2023-04-20T04:16:35;100394.91;;;8.52;42.77
34674;BME280;20879;55.668;37.858;2023-04-20T04:19:04;100400.97;;;8.69;42.35
34674;BME280;20879;55.668;37.858;2023-04-20T04:21:35;100393.28;;;8.79;42.34
34674;BME280;20879;55.668;37.858;2023-04-20T04:24:10;100394.16;;;8.87;42.21
34674;BME280;20879;55.668;37.858;2023-04-20T04:26:52;100381.25;;;8.87;42.40
34674;BME280;20879;55.668;37.858;2023-04-20T04:29:27;100399.38;;;8.99;41.91
34674;BME280;20879;55.668;37.858;2023-04-20T04:32:03;100386.47;;;9.19;41.84
34674;BME280;20879;55.668;37.858;2023-04-20T04:34:39;100390.78;;;9.47;41.18
34674;BME280;20879;55.668;37.858;2023-04-20T04:37:15;100396.84;;;9.55;41.15
34674;BME280;20879;55.668;37.858;2023-04-20T04:39:49;100398.53;;;9.57;41.51
34674;BME280;20879;55.668;37.858;2023-04-20T04:42:24;100390.81;;;9.62;41.37
34674;BME280;20879;55.668;37.858;2023-04-20T04:44:55;100389.94;;;9.72;41.50
34674;BME280;20879;55.668;37.858;2023-04-20T04:47:35;100385.63;;;9.74;41.18
34674;BME280;20879;55.668;37.858;2023-04-20T04:50:12;100388.19;;;9.74;41.41
34674;BME280;20879;55.668;37.858;2023-04-20T04:52:44;100389.06;;;9.72;41.27
34674;BME280;20879;55.668;37.858;2023-04-20T04:55:20;100382.19;;;9.72;41.38
34674;BME280;20879;55.668;37.858;2023-04-20T04:57:56;100380.44;;;9.68;41.27
34674;BME280;20879;55.668;37.858;2023-04-20T05:00:27;100379.59;;;9.72;41.08
34674;BME280;20879;55.668;37.858;2023-04-20T05:02:57;100381.28;;;9.72;40.99
34674;BME280;20879;55.668;37.858;2023-04-20T05:05:33;100385.63;;;9.70;41.11
34674;BME280;20879;55.668;37.858;2023-04-20T05:08:07;100376.13;;;9.69;41.43
34674;BME280;20879;55.668;37.858;2023-04-20T05:10:42;100368.38;;;9.73;41.47
34674;BME280;20879;55.668;37.858;2023-04-20T05:13:14;100366.66;;;9.74;41.24
34674;BME280;20879;55.668;37.858;2023-04-20T05:15:44;100376.97;;;9.85;41.42
34674;BME280;20879;55.668;37.858;2023-04-20T05:18:13;100382.16;;;9.86;41.24
34674;BME280;20879;55.668;37.858;2023-04-20T05:20:42;100365.78;;;9.86;41.24
34674;BME280;20879;55.668;37.858;2023-04-20T05:23:12;100376.09;;;9.95;41.13
34674;BME280;20879;55.668;37.858;2023-04-20T05:25:42;100361.44;;;9.94;40.47
34674;BME280;20879;55.668;37.858;2023-04-20T05:28:14;100375.22;;;10.02;40.19
34674;BME280;20879;55.668;37.858;2023-04-20T05:30:43;100373.47;;;10.04;40.76
34674;BME280;20879;55.668;37.858;2023-04-20T05:33:13;100360.56;;;10.09;40.18
34674;BME280;20879;55.668;37.858;2023-04-20T05:35:47;100363.09;;;10.17;40.52
34674;BME280;20879;55.668;37.858;2023-04-20T05:38:17;100352.72;;;10.23;40.71
34674;BME280;20879;55.668;37.858;2023-04-20T05:40:46;100365.63;;;10.32;40.40
34674;BME280;20879;55.668;37.858;2023-04-20T05:43:23;100363.06;;;10.40;40.11
34674;BME280;20879;55.668;37.858;2023-04-20T05:45:53;100367.34;;;10.50;40.09
34674;BME280;20879;55.668;37.858;2023-04-20T05:48:27;100364.69;;;10.58;40.10
34674;BME280;20879;55.668;37.858;2023-04-20T05:50:57;100351.72;;;10.62;39.99
34674;BME280;20879;55.668;37.858;2023-04-20T05:53:26;100361.19;;;10.66;40.34
34674;BME280;20879;55.668;37.858;2023-04-20T05:56:01;100330.19;;;10.53;39.82
34674;BME280;20879;55.668;37.858;2023-04-20T05:58:34;100365.41;;;10.83;39.74
34674;BME280;20879;55.668;37.858;2023-04-20T06:01:03;100365.38;;;10.89;39.61
34674;BME280;20879;55.668;37.858;2023-04-20T06:03:33;100372.22;;;10.99;39.63
34674;BME280;20879;55.668;37.858;2023-04-20T06:06:03;100362.69;;;11.06;39.27
34674;BME280;20879;55.668;37.858;2023-04-20T06:08:33;100364.38;;;11.13;39.36
34674;BME280;20879;55.668;37.858;2023-04-20T06:11:07;100369.47;;;11.23;39.37
34674;BME280;20879;55.668;37.858;2023-04-20T06:13:44;100369.34;;;11.40;39.35
34674;BME280;20879;55.668;37.858;2023-04-20T06:16:19;100364.03;;;11.53;38.78
34674;BME280;20879;55.668;37.858;2023-04-20T06:18:49;100348.50;;;11.50;39.11
34674;BME280;20879;55.668;37.858;2023-04-20T06:21:19;100362.22;;;11.63;39.15
34674;BME280;20879;55.668;37.858;2023-04-20T06:23:55;100349.16;;;11.74;38.81
34674;BME280;20879;55.668;37.858;2023-04-20T06:26:24;100355.97;;;11.86;38.70
34674;BME280;20879;55.668;37.858;2023-04-20T06:28:56;100360.22;;;11.95;38.39
34674;BME280;20879;55.668;37.858;2023-04-20T06:31:25;100348.00;;;12.06;38.47
34674;BME280;20879;55.668;37.858;2023-04-20T06:33:54;100328.03;;;12.13;37.83
34674;BME280;20879;55.668;37.858;2023-04-20T06:36:30;100340.97;;;12.16;37.53
34674;BME280;20879;55.668;37.858;2023-04-20T06:38:59;100337.41;;;12.24;37.37
34674;BME280;20879;55.668;37.858;2023-04-20T06:41:29;100338.25;;;12.25;37.25
34674;BME280;20879;55.668;37.858;2023-04-20T06:44:06;100334.81;;;12.24;37.55
34674;BME280;20879;55.668;37.858;2023-04-20T06:46:36;100331.22;;;12.35;37.41
34674;BME280;20879;55.668;37.858;2023-04-20T06:49:05;100329.47;;;12.35;37.71
34674;BME280;20879;55.668;37.858;2023-04-20T06:51:40;100345.84;;;12.42;37.43
34674;BME280;20879;55.668;37.858;2023-04-20T06:54:09;100352.66;;;12.51;37.25
34674;BME280;20879;55.668;37.858;2023-04-20T06:56:45;100335.19;;;12.64;37.00
34674;BME280;20879;55.668;37.858;2023-04-20T06:59:16;100339.41;;;12.68;36.93
34674;BME280;20879;55.668;37.858;2023-04-20T07:01:51;100336.75;;;12.74;36.45
34674;BME280;20879;55.668;37.858;2023-04-20T07:04:35;100323.72;;;12.77;36.26
34674;BME280;20879;55.668;37.858;2023-04-20T07:07:04;100329.66;;;12.85;36.38
34674;BME280;20879;55.668;37.858;2023-04-20T07:09:34;100334.63;;;13.01;36.02
34674;BME280;20879;55.668;37.858;2023-04-20T07:12:10;100314.59;;;13.06;35.56
34674;BME280;20879;55.668;37.858;2023-04-20T07:14:43;100309.31;;;13.14;35.35
34674;BME280;20879;55.668;37.858;2023-04-20T07:17:19;100312.59;;;13.23;35.19
34674;BME280;20879;55.668;37.858;2023-04-20T07:19:54;100316.59;;;13.46;33.98
34674;BME280;20879;55.668;37.858;2023-04-20T07:22:28;100302.72;;;13.44;33.59
34674;BME280;20879;55.668;37.858;2023-04-20T07:24:59;100309.72;;;13.42;33.40
34674;BME280;20879;55.668;37.858;2023-04-20T07:27:35;100300.13;;;13.44;32.93
34674;BME280;20879;55.668;37.858;2023-04-20T07:30:16;100302.59;;;13.53;32.76
34674;BME280;20879;55.668;37.858;2023-04-20T07:32:46;100294.59;;;13.62;32.56
34674;BME280;20879;55.668;37.858;2023-04-20T07:35:21;100304.94;;;13.67;31.94
34674;BME280;20879;55.668;37.858;2023-04-20T07:37:54;100286.56;;;13.76;31.75
34674;BME280;20879;55.668;37.858;2023-04-20T07:40:28;100311.50;;;13.87;31.23
34674;BME280;20879;55.668;37.858;2023-04-20T07:42:58;100280.16;;;13.93;30.85
34674;BME280;20879;55.668;37.858;2023-04-20T07:45:29;100290.56;;;13.93;30.90
34674;BME280;20879;55.668;37.858;2023-04-20T07:47:58;100261.06;;;13.94;30.74
34674;BME280;20879;55.668;37.858;2023-04-20T07:50:31;100304.06;;;14.12;29.27
34674;BME280;20879;55.668;37.858;2023-04-20T07:53:00;100294.47;;;14.14;29.28
34674;BME280;20879;55.668;37.858;2023-04-20T07:55:30;100268.50;;;14.11;29.93
34674;BME280;20879;55.668;37.858;2023-04-20T07:57:59;100260.03;;;13.99;30.02
34674;BME280;20879;55.668;37.858;2023-04-20T08:00:32;100283.91;;;14.22;29.37
34674;BME280;20879;55.668;37.858;2023-04-20T08:03:01;100284.75;;;14.22;29.81
34674;BME280;20879;55.668;37.858;2023-04-20T08:05:31;100285.50;;;14.27;29.22
34674;BME280;20879;55.668;37.858;2023-04-20T08:08:07;100289.59;;;14.39;28.56
34674;BME280;20879;55.668;37.858;2023-04-20T08:10:41;100267.75;;;14.45;28.24
34674;BME280;20879;55.668;37.858;2023-04-20T08:13:16;100278.84;;;14.55;27.81
34674;BME280;20879;55.668;37.858;2023-04-20T08:15:47;100258.75;;;14.61;27.05
34674;BME280;20879;55.668;37.858;2023-04-20T08:18:16;100259.44;;;14.68;27.15
34674;BME280;20879;55.668;37.858;2023-04-20T08:20:47;100262.03;;;14.70;25.35
34674;BME280;20879;55.668;37.858;2023-04-20T08:23:17;100257.69;;;14.70;26.52
34674;BME280;20879;55.668;37.858;2023-04-20T08:25:51;100236.78;;;14.72;26.28
34674;BME280;20879;55.668;37.858;2023-04-20T08:28:21;100265.38;;;14.75;26.67
34674;BME280;20879;55.668;37.858;2023-04-20T08:31:02;100244.50;;;14.76;26.87
34674;BME280;20879;55.668;37.858;2023-04-20T08:33:37;100252.59;;;15.00;26.66
34674;BME280;20879;55.668;37.858;2023-04-20T08:36:07;100253.50;;;14.99;26.52
34674;BME280;20879;55.668;37.858;2023-04-20T08:38:37;100263.75;;;15.07;26.47
34674;BME280;20879;55.668;37.858;2023-04-20T08:41:06;100232.00;;;14.91;26.68
34674;BME280;20879;55.668;37.858;2023-04-20T08:43:39;100234.91;;;15.13;26.33
34674;BME280;20879;55.668;37.858;2023-04-20T08:46:12;100257.22;;;15.25;26.30
34674;BME280;20879;55.668;37.858;2023-04-20T08:48:44;100247.22;;;15.41;26.23
34674;BME280;20879;55.668;37.858;2023-04-20T08:51:15;100232.13;;;15.52;26.09
34674;BME280;20879;55.668;37.858;2023-04-20T08:53:45;100229.13;;;15.34;25.82
34674;BME280;20879;55.668;37.858;2023-04-20T08:56:16;100225.53;;;15.38;25.86
34674;BME280;20879;55.668;37.858;2023-04-20T08:58:46;100237.69;;;15.40;25.67
34674;BME280;20879;55.668;37.858;2023-04-20T09:01:26;100230.81;;;15.35;26.07
34674;BME280;20879;55.668;37.858;2023-04-20T09:04:15;100232.31;;;15.44;25.04
34674;BME280;20879;55.668;37.858;2023-04-20T09:06:47;100228.09;;;15.40;25.22
34674;BME280;20879;55.668;37.858;2023-04-20T09:09:17;100243.03;;;15.35;25.18
34674;BME280;20879;55.668;37.858;2023-04-20T09:11:58;100233.06;;;15.49;24.83
34674;BME280;20879;55.668;37.858;2023-04-20T09:14:29;100230.94;;;15.64;24.84
34674;BME280;20879;55.668;37.858;2023-04-20T09:17:01;100222.84;;;15.73;24.99
34674;BME280;20879;55.668;37.858;2023-04-20T09:19:31;100227.44;;;15.96;24.77
34674;BME280;20879;55.668;37.858;2023-04-20T09:22:00;100226.09;;;16.13;25.01
34674;BME280;20879;55.668;37.858;2023-04-20T09:24:41;100222.03;;;16.31;24.38
34674;BME280;20879;55.668;37.858;2023-04-20T09:27:17;100226.22;;;16.36;24.64
34674;BME280;20879;55.668;37.858;2023-04-20T09:29:55;100212.53;;;16.28;24.74
34674;BME280;20879;55.668;37.858;2023-04-20T09:32:27;100214.25;;;16.29;24.65
34674;BME280;20879;55.668;37.858;2023-04-20T09:35:03;100220.06;;;16.39;25.03
34674;BME280;20879;55.668;37.858;2023-04-20T09:37:33;100209.19;;;16.51;24.81
34674;BME280;20879;55.668;37.858;2023-04-20T09:40:09;100212.28;;;16.37;24.17
34674;BME280;20879;55.668;37.858;2023-04-20T09:42:39;100205.13;;;16.42;23.71
34674;BME280;20879;55.668;37.858;2023-04-20T09:45:14;100205.13;;;16.42;23.55
34674;BME280;20879;55.668;37.858;2023-04-20T09:47:46;100166.94;;;16.38;23.73
34674;BME280;20879;55.668;37.858;2023-04-20T09:50:21;100203.75;;;16.59;23.27
34674;BME280;20879;55.668;37.858;2023-04-20T09:53:08;100201.56;;;16.72;23.37
34674;BME280;20879;55.668;37.858;2023-04-20T09:55:37;100198.63;;;16.83;22.74
34674;BME280;20879;55.668;37.858;2023-04-20T09:58:07;100198.31;;;16.92;22.89
34674;BME280;20879;55.668;37.858;2023-04-20T10:00:36;100176.56;;;16.91;22.84
34674;BME280;20879;55.668;37.858;2023-04-20T10:03:15;100185.53;;;16.83;22.45
34674;BME280;20879;55.668;37.858;2023-04-20T10:05:52;100186.38;;;16.83;22.49
34674;BME280;20879;55.668;37.858;2023-04-20T10:08:39;100179.69;;;17.01;21.84
34674;BME280;20879;55.668;37.858;2023-04-20T10:11:09;100168.00;;;17.37;22.15
34674;BME280;20879;55.668;37.858;2023-04-20T10:13:38;100167.41;;;17.28;22.40
34674;BME280;20879;55.668;37.858;2023-04-20T10:16:16;100174.59;;;17.23;22.05
34674;BME280;20879;55.668;37.858;2023-04-20T10:19:00;100163.13;;;17.26;22.27
34674;BME280;20879;55.668;37.858;2023-04-20T10:21:44;100161.66;;;17.19;21.99
34674;BME280;20879;55.668;37.858;2023-04-20T10:24:15;100140.81;;;17.16;22.74
34674;BME280;20879;55.668;37.858;2023-04-20T10:26:47;100158.63;;;17.06;22.29
34674;BME280;20879;55.668;37.858;2023-04-20T10:29:22;100165.25;;;17.16;22.00
34674;BME280;20879;55.668;37.858;2023-04-20T10:31:53;100161.28;;;17.29;22.25
34674;BME280;20879;55.668;37.858;2023-04-20T10:34:35;100170.00;;;17.54;21.70
34674;BME280;20879;55.668;37.858;2023-04-20T10:37:10;100164.72;;;17.79;21.86
34674;BME280;20879;55.668;37.858;2023-04-20T10:39:43;100158.31;;;18.10;21.68
34674;BME280;20879;55.668;37.858;2023-04-20T10:42:13;100148.31;;;18.20;21.85
34674;BME280;20879;55.668;37.858;2023-04-20T10:44:48;100141.56;;;18.36;22.06
34674;BME280;20879;55.668;37.858;2023-04-20T10:47:27;100112.81;;;18.33;22.00
34674;BME280;20879;55.668;37.858;2023-04-20T10:50:07;100157.94;;;17.97;22.31
34674;BME280;20879;55.668;37.858;2023-04-20T10:52:43;100166.34;;;17.58;22.78
34674;BME280;20879;55.668;37.858;2023-04-20T10:55:20;100159.84;;;17.21;23.34
34674;BME280;20879;55.668;37.858;2023-04-20T10:57:50;100149.84;;;17.07;23.32
34674;BME280;20879;55.668;37.858;2023-04-20T11:00:22;100156.38;;;16.95;23.91
34674;BME280;20879;55.668;37.858;2023-04-20T11:03:02;100145.75;;;16.73;23.50
34674;BME280;20879;55.668;37.858;2023-04-20T11:05:34;100144.38;;;16.63;23.88
34674;BME280;20879;55.668;37.858;2023-04-20T11:08:09;100120.28;;;16.53;24.10
34674;BME280;20879;55.668;37.858;2023-04-20T11:10:43;100158.50;;;16.57;23.85
34674;BME280;20879;55.668;37.858;2023-04-20T11:13:19;100142.00;;;16.55;23.77
34674;BME280;20879;55.668;37.858;2023-04-20T11:15:51;100120.34;;;16.51;23.94
34674;BME280;20879;55.668;37.858;2023-04-20T11:18:20;100111.50;;;16.55;24.08
34674;BME280;20879;55.668;37.858;2023-04-20T11:20:52;100110.75;;;16.52;23.85
34674;BME280;20879;55.668;37.858;2023-04-20T11:23:23;100115.44;;;16.67;24.16
34674;BME280;20879;55.668;37.858;2023-04-20T11:25:58;100096.34;;;16.65;24.27
34674;BME280;20879;55.668;37.858;2023-04-20T11:28:28;100111.59;;;16.52;24.53
34674;BME280;20879;55.668;37.858;2023-04-20T11:31:00;100098.56;;;16.51;24.60
34674;BME280;20879;55.668;37.858;2023-04-20T11:33:30;100066.59;;;16.42;24.47
34674;BME280;20879;55.668;37.858;2023-04-20T11:36:02;100096.09;;;16.21;24.83
34674;BME280;20879;55.668;37.858;2023-04-20T11:38:37;100091.25;;;16.08;24.71
34674;BME280;20879;55.668;37.858;2023-04-20T11:41:24;100087.53;;;16.16;24.57
34674;BME280;20879;55.668;37.858;2023-04-20T11:43:58;100104.34;;;16.07;24.86
34674;BME280;20879;55.668;37.858;2023-04-20T11:46:27;100054.88;;;16.02;25.05
34674;BME280;20879;55.668;37.858;2023-04-20T11:49:08;100061.81;;;16.03;24.88
34674;BME280;20879;55.668;37.858;2023-04-20T11:51:39;100095.16;;;15.95;25.21
34674;BME280;20879;55.668;37.858;2023-04-20T11:54:09;100082.97;;;15.94;25.18
34674;BME280;20879;55.668;37.858;2023-04-20T11:56:39;100081.56;;;15.84;25.18
34674;BME280;20879;55.668;37.858;2023-04-20T11:59:11;100065.06;;;15.83;24.70
34674;BME280;20879;55.668;37.858;2023-04-20T12:01:43;100020.38;;;15.64;24.89
34674;BME280;20879;55.668;37.858;2023-04-20T12:04:13;100066.06;;;15.78;25.05
34674;BME280;20879;55.668;37.858;2023-04-20T12:06:45;100069.66;;;15.73;24.95
34674;BME280;20879;55.668;37.858;2023-04-20T12:09:19;100070.59;;;15.72;25.07
34674;BME280;20879;55.668;37.858;2023-04-20T12:11:59;100032.28;;;15.73;24.80
34674;BME280;20879;55.668;37.858;2023-04-20T12:14:33;100054.41;;;15.61;25.12
34674;BME280;20879;55.668;37.858;2023-04-20T12:17:03;100058.16;;;15.81;25.12
34674;BME280;20879;55.668;37.858;2023-04-20T12:19:37;100065.63;;;15.93;25.02
34674;BME280;20879;55.668;37.858;2023-04-20T12:22:09;100052.94;;;16.07;25.73
34674;BME280;20879;55.668;37.858;2023-04-20T12:24:38;100059.56;;;16.19;25.05
34674;BME280;20879;55.668;37.858;2023-04-20T12:27:08;100050.75;;;16.22;25.52
34674;BME280;20879;55.668;37.858;2023-04-20T12:29:37;100029.59;;;16.03;25.99
34674;BME280;20879;55.668;37.858;2023-04-20T12:32:06;100032.38;;;15.98;26.17
34674;BME280;20879;55.668;37.858;2023-04-20T12:34:36;100046.16;;;16.03;26.19
34674;BME280;20879;55.668;37.858;2023-04-20T12:37:05;99984.34;;;16.02;25.92
34674;BME280;20879;55.668;37.858;2023-04-20T12:39:36;100029.13;;;15.92;26.43
34674;BME280;20879;55.668;37.858;2023-04-20T12:42:06;100035.34;;;15.87;26.03
34674;BME280;20879;55.668;37.858;2023-04-20T12:51:56;100007.97;;;15.99;25.92
34674;BME280;20879;55.668;37.858;2023-04-20T12:54:25;100011.88;;;15.86;25.85
34674;BME280;20879;55.668;37.858;2023-04-20T12:56:54;99996.88;;;15.64;26.12
34674;BME280;20879;55.668;37.858;2023-04-20T12:59:30;100016.03;;;15.63;26.50
34674;BME280;20879;55.668;37.858;2023-04-20T13:02:05;100005.78;;;15.57;26.67
34674;BME280;20879;55.668;37.858;2023-04-20T13:04:35;100006.00;;;15.51;26.61
34674;BME280;20879;55.668;37.858;2023-04-20T13:07:07;100025.00;;;15.54;26.83
34674;BME280;20879;55.668;37.858;2023-04-20T13:09:36;100026.56;;;15.60;27.08
34674;BME280;20879;55.668;37.858;2023-04-20T13:12:07;100006.38;;;15.67;26.99
34674;BME280;20879;55.668;37.858;2023-04-20T13:14:50;99999.19;;;15.73;26.85
34674;BME280;20879;55.668;37.858;2023-04-20T13:17:21;100017.28;;;15.80;26.97
34674;BME280;20879;55.668;37.858;2023-04-20T13:19:50;99973.22;;;15.69;26.97
34674;BME280;20879;55.668;37.858;2023-04-20T13:22:22;100001.84;;;15.72;27.29